Mc Lean, Virginia
Current Conditions -  °F | °C
As of 9:52 PM on Tuesday 21 Oct 2014 (Local Time) from KDCA Reporting Station
Light Rain Light Rain  
Wind Chill: 57°   Ceiling: 4800
Heat Index: 57°   Visibility: 10mi
Dew Point: 51°   Wind: 7mph
Humidity: 81%   Direction: 260°W
Pressure: 29.93"   Gusts: NA
Location:  38.9398°N, 77.1677°W
Report Text: KDCA 220152Z 26006KT 10SM -RA BKN048 OVC065 14/11 A2993 RMK AO2 RAB0053 SLP132 P0003 T01390106
Loading
Personal Weather Stations






























Interactive Weather Map
Tropical Storm Tracking
New forecast layout! Learn more

10-Day Weather Forecast

Advertisements
Track Severe Weather on mobile